createdAt,value
2022-11-04T00:01:21.233Z,100284.40
2022-11-04T00:03:51.142Z,100272.40
2022-11-04T00:06:20.728Z,100268.40
2022-11-04T00:08:53.995Z,100263.20
2022-11-04T00:11:42.529Z,100267.00
2022-11-04T00:14:12.475Z,100268.20
2022-11-04T00:17:00.611Z,100263.40
2022-11-04T00:19:51.248Z,100263.00
2022-11-04T00:22:39.406Z,100255.40
2022-11-04T00:25:29.885Z,100255.80
2022-11-04T00:28:25.354Z,100251.80
2022-11-04T00:31:19.133Z,100257.00
2022-11-04T00:33:52.737Z,100259.60
2022-11-04T00:36:23.119Z,100252.80
2022-11-04T00:38:53.540Z,100248.60
2022-11-04T00:41:26.592Z,100240.80
2022-11-04T00:43:58.228Z,100237.00
2022-11-04T00:46:28.557Z,100233.00
2022-11-04T00:48:58.240Z,100233.40
2022-11-04T00:51:28.488Z,100220.20
2022-11-04T00:53:58.519Z,100224.80
2022-11-04T00:56:28.296Z,100225.40
2022-11-04T00:59:03.133Z,100219.40
2022-11-04T01:01:32.948Z,100214.00
2022-11-04T01:04:02.929Z,100205.20
2022-11-04T01:06:32.741Z,100203.80
2022-11-04T01:09:04.956Z,100211.20
2022-11-04T01:11:34.759Z,100203.40
2022-11-04T01:14:04.379Z,100190.00
2022-11-04T01:16:33.974Z,100191.60
2022-11-04T01:19:03.524Z,100185.20
2022-11-04T01:21:33.111Z,100177.60
2022-11-04T01:24:02.800Z,100185.00
2022-11-04T01:26:32.485Z,100179.20
2022-11-04T01:29:02.752Z,100181.40
2022-11-04T01:31:33.985Z,100175.20
2022-11-04T01:34:03.759Z,100171.60
2022-11-04T01:36:33.492Z,100169.80
2022-11-04T01:39:03.460Z,100160.80
2022-11-04T01:41:34.767Z,100147.20
2022-11-04T01:44:22.270Z,100145.60
2022-11-04T01:46:53.441Z,100142.40
2022-11-04T01:49:26.864Z,100134.00
2022-11-04T01:52:00.657Z,100134.00
2022-11-04T01:54:30.170Z,100128.40
2022-11-04T01:57:01.425Z,100131.60
2022-11-04T01:59:35.373Z,100126.80
2022-11-04T02:02:15.764Z,100123.60
2022-11-04T02:04:45.398Z,100111.60
2022-11-04T02:07:14.922Z,100103.60
2022-11-04T02:09:44.527Z,100095.80
2022-11-04T02:12:35.116Z,100101.20
2022-11-04T02:15:05.861Z,100107.40
2022-11-04T02:17:59.172Z,100110.80
2022-11-04T02:20:36.622Z,100113.80
2022-11-04T02:24:04.176Z,100104.80
2022-11-04T02:27:20.190Z,100089.80
2022-11-04T02:30:09.392Z,100085.40
2022-11-04T02:33:03.736Z,100084.80
2022-11-04T02:35:41.730Z,100087.80
2022-11-04T02:38:19.725Z,100088.00
2022-11-04T02:40:54.968Z,100074.20
2022-11-04T02:43:27.012Z,100078.40
2022-11-04T02:46:01.966Z,100073.40
2022-11-04T02:48:36.176Z,100057.20
2022-11-04T02:51:09.941Z,100060.80
2022-11-04T02:53:41.446Z,100055.20
2022-11-04T02:56:16.589Z,100058.00
2022-11-04T02:58:52.240Z,100055.60
2022-11-04T03:01:21.692Z,100057.60
2022-11-04T03:03:55.359Z,100056.80
2022-11-04T03:06:26.524Z,100053.00
2022-11-04T03:08:56.162Z,100056.00
2022-11-04T03:11:26.981Z,100056.20
2022-11-04T03:13:59.041Z,100051.80
2022-11-04T03:16:32.705Z,100057.40
2022-11-04T03:19:04.655Z,100054.60
2022-11-04T03:21:37.537Z,100042.80
2022-11-04T03:24:08.076Z,100044.60
2022-11-04T03:26:44.212Z,100041.00
2022-11-04T03:29:24.013Z,100040.20
2022-11-04T03:32:07.913Z,100042.80
2022-11-04T03:34:37.949Z,100032.00
2022-11-04T03:37:07.786Z,100036.60
2022-11-04T03:39:37.750Z,100022.40
2022-11-04T03:42:20.412Z,100022.00
2022-11-04T03:44:51.944Z,100003.80
2022-11-04T03:47:24.052Z,99998.20
2022-11-04T03:49:55.536Z,99991.60
2022-11-04T03:52:27.941Z,99995.20
2022-11-04T03:54:57.631Z,100011.40
2022-11-04T03:57:40.004Z,100014.00
2022-11-04T04:00:13.415Z,100007.60
2022-11-04T04:03:08.079Z,100007.00
2022-11-04T04:05:41.439Z,100008.60
2022-11-04T04:08:20.002Z,100004.40
2022-11-04T04:11:00.268Z,99995.20
2022-11-04T04:13:36.661Z,100005.40
2022-11-04T04:16:09.460Z,99994.20
2022-11-04T04:18:42.514Z,99991.60
2022-11-04T04:21:15.127Z,99991.80
2022-11-04T04:24:03.009Z,99995.80
2022-11-04T04:26:51.699Z,99997.60
2022-11-04T04:29:21.380Z,100001.40
2022-11-04T04:31:52.112Z,100009.80
2022-11-04T04:34:23.853Z,100008.60
2022-11-04T04:36:57.447Z,99997.20
2022-11-04T04:39:51.793Z,99994.00
2022-11-04T04:42:39.957Z,99997.40
2022-11-04T04:45:13.208Z,100004.20
2022-11-04T04:47:46.187Z,99999.60
2022-11-04T04:50:17.443Z,100003.20
2022-11-04T04:52:49.589Z,100001.20
2022-11-04T04:55:19.625Z,100005.80
2022-11-04T04:57:49.282Z,99994.80
2022-11-04T05:00:21.160Z,99998.60
2022-11-04T05:02:51.319Z,99996.60
2022-11-04T05:05:21.329Z,100000.80
2022-11-04T05:07:51.464Z,100007.80
2022-11-04T05:10:21.143Z,100005.60
2022-11-04T05:13:08.881Z,99999.40
2022-11-04T05:15:40.914Z,99998.40
2022-11-04T05:18:11.199Z,99978.20
2022-11-04T05:20:41.259Z,99978.00
2022-11-04T05:23:11.914Z,99981.00
2022-11-04T05:25:42.253Z,99975.40
2022-11-04T05:28:26.589Z,99970.20
2022-11-04T05:30:57.403Z,99968.80
2022-11-04T05:33:34.706Z,99969.80
2022-11-04T05:36:12.105Z,99965.40
2022-11-04T05:38:41.944Z,99959.60
2022-11-04T05:41:25.303Z,99964.60
2022-11-04T05:43:55.631Z,99961.40
2022-11-04T05:46:27.506Z,99956.60
2022-11-04T05:49:04.537Z,99954.80
2022-11-04T05:51:48.443Z,99941.40
2022-11-04T05:54:18.205Z,99935.80
2022-11-04T05:56:47.875Z,99939.60
2022-11-04T05:59:17.470Z,99937.60
2022-11-04T06:01:50.732Z,99936.40
2022-11-04T06:04:20.766Z,99944.20
2022-11-04T06:06:50.494Z,99941.40
2022-11-04T06:09:20.172Z,99945.40
2022-11-04T06:11:51.320Z,99934.20
2022-11-04T06:14:21.328Z,99935.60
2022-11-04T06:16:51.026Z,99934.40
2022-11-04T06:19:21.093Z,99930.80
2022-11-04T06:21:50.639Z,99934.40
2022-11-04T06:24:21.025Z,99939.80
2022-11-04T06:26:50.716Z,99932.20
2022-11-04T06:29:20.446Z,99925.20
2022-11-04T06:31:50.182Z,99925.40
2022-11-04T06:34:26.615Z,99927.00
2022-11-04T06:36:56.193Z,99922.40
2022-11-04T06:39:25.857Z,99941.80
2022-11-04T06:41:58.005Z,99930.60
2022-11-04T06:44:31.185Z,99936.60
2022-11-04T06:47:01.496Z,99943.60
2022-11-04T06:49:31.631Z,99942.60
2022-11-04T06:52:02.279Z,99938.60
2022-11-04T06:54:34.405Z,99935.60
2022-11-04T06:57:04.331Z,99943.60
2022-11-04T06:59:34.224Z,99939.80
2022-11-04T07:02:04.743Z,99939.80
2022-11-04T07:04:38.051Z,99953.80
2022-11-04T07:07:19.386Z,99957.60
2022-11-04T07:09:50.177Z,99947.20
2022-11-04T07:12:22.330Z,99951.20
2022-11-04T07:14:56.122Z,99945.60
2022-11-04T07:17:26.197Z,99944.00
2022-11-04T07:19:56.581Z,99936.60
2022-11-04T07:22:26.833Z,99944.60
2022-11-04T07:24:56.818Z,99938.00
2022-11-04T07:27:31.726Z,99935.60
2022-11-04T07:30:04.602Z,99942.00
2022-11-04T07:32:34.400Z,99943.40
2022-11-04T07:35:04.710Z,99941.80
2022-11-04T07:37:34.480Z,99943.40
2022-11-04T07:40:06.629Z,99938.20
2022-11-04T07:42:39.885Z,99932.00
2022-11-04T07:45:12.247Z,99933.60
2022-11-04T07:47:42.016Z,99931.40
2022-11-04T07:50:13.116Z,99928.80
2022-11-04T07:52:43.096Z,99932.60
2022-11-04T07:55:18.108Z,99917.40
2022-11-04T07:57:48.175Z,99917.00
2022-11-04T08:00:19.874Z,99918.80
2022-11-04T08:02:50.433Z,99911.00
2022-11-04T08:05:20.410Z,99908.80
2022-11-04T08:07:50.611Z,99902.40
2022-11-04T08:10:21.363Z,99899.80
2022-11-04T08:12:51.931Z,99903.20
2022-11-04T08:15:22.101Z,99902.20
2022-11-04T08:17:51.987Z,99898.20
2022-11-04T08:20:22.105Z,99901.20
2022-11-04T08:22:52.795Z,99901.60
2022-11-04T08:25:28.123Z,99897.20
2022-11-04T08:28:00.859Z,99886.60
2022-11-04T08:30:31.282Z,99882.00
2022-11-04T08:33:12.327Z,99891.40
2022-11-04T08:35:42.806Z,99881.20
2022-11-04T08:38:12.662Z,99875.00
2022-11-04T08:40:42.330Z,99874.20
2022-11-04T08:43:12.472Z,99868.20
2022-11-04T08:45:43.271Z,99877.60
2022-11-04T08:48:18.357Z,99872.60
2022-11-04T08:50:51.465Z,99871.80
2022-11-04T08:53:21.124Z,99870.00
2022-11-04T08:55:51.310Z,99870.20
2022-11-04T08:58:21.205Z,99876.40
2022-11-04T09:00:50.926Z,99873.00
2022-11-04T09:03:24.116Z,99871.40
2022-11-04T09:06:00.512Z,99872.20
2022-11-04T09:08:30.400Z,99875.80
2022-11-04T09:11:01.056Z,99876.20
2022-11-04T09:13:35.458Z,99871.20
2022-11-04T09:16:09.814Z,99877.20
2022-11-04T09:18:42.784Z,99867.80
2022-11-04T09:21:15.428Z,99865.40
2022-11-04T09:23:46.211Z,99862.60
2022-11-04T09:26:19.232Z,99858.00
2022-11-04T09:28:53.056Z,99860.00
2022-11-04T09:31:23.447Z,99859.80
2022-11-04T09:34:03.857Z,99865.20
2022-11-04T09:36:48.486Z,99859.00
2022-11-04T09:39:22.678Z,99846.20
2022-11-04T09:42:16.248Z,99850.80
2022-11-04T09:45:19.908Z,99851.60
2022-11-04T09:48:03.544Z,99845.60
2022-11-04T09:50:40.544Z,99836.80
2022-11-04T09:53:17.363Z,99839.20
2022-11-04T09:55:58.438Z,99833.00
2022-11-04T09:58:45.329Z,99836.40
2022-11-04T10:01:27.495Z,99834.60
2022-11-04T10:04:15.292Z,99836.40
2022-11-04T10:07:17.963Z,99827.80
2022-11-04T10:10:03.896Z,99822.00
2022-11-04T10:13:01.738Z,99821.40
2022-11-04T10:15:43.026Z,99822.00
2022-11-04T10:18:27.815Z,99814.40
2022-11-04T10:21:01.621Z,99818.40
2022-11-04T10:23:38.416Z,99819.60
2022-11-04T10:26:13.176Z,99808.80
2022-11-04T10:28:57.504Z,99813.20
2022-11-04T10:31:27.344Z,99805.00
2022-11-04T10:34:00.356Z,99806.20
2022-11-04T10:36:30.773Z,99797.80
2022-11-04T10:39:01.701Z,99792.20
2022-11-04T10:44:57.258Z,99781.40
2022-11-04T10:47:57.383Z,99775.00
2022-11-04T10:50:52.783Z,99769.80
2022-11-04T10:53:40.130Z,99767.40
2022-11-04T10:56:23.525Z,99767.00
2022-11-04T10:58:53.323Z,99777.00
2022-11-04T11:01:29.539Z,99778.60
2022-11-04T11:04:01.075Z,99771.20
2022-11-04T11:06:32.542Z,99771.20
2022-11-04T11:09:14.589Z,99770.20
2022-11-04T11:12:02.557Z,99770.00
2022-11-04T11:14:37.607Z,99769.00
2022-11-04T11:17:22.867Z,99763.00
2022-11-04T11:19:57.399Z,99764.40
2022-11-04T11:22:51.730Z,99758.40
2022-11-04T11:25:29.789Z,99758.40
2022-11-04T11:28:00.793Z,99754.00
2022-11-04T11:30:33.734Z,99740.80
2022-11-04T11:33:06.733Z,99748.80
2022-11-04T11:35:58.140Z,99744.00
2022-11-04T11:38:29.278Z,99747.60
2022-11-04T11:41:25.814Z,99737.60
2022-11-04T11:44:06.472Z,99736.20
2022-11-04T11:46:59.000Z,99748.40
2022-11-04T11:49:39.242Z,99748.60
2022-11-04T11:52:34.238Z,99735.40
2022-11-04T11:55:21.060Z,99737.20
2022-11-04T12:00:54.647Z,99738.20
2022-11-04T12:09:44.067Z,99726.00
2022-11-04T12:12:35.621Z,99726.40
2022-11-04T12:15:25.691Z,99730.80
2022-11-04T12:18:26.383Z,99731.40
2022-11-04T12:21:00.809Z,99728.60
2022-11-04T12:23:36.100Z,99730.80
2022-11-04T12:26:19.790Z,99733.80
2022-11-04T12:29:06.807Z,99723.20
2022-11-04T12:31:43.343Z,99725.00
2022-11-04T12:34:20.979Z,99719.40
2022-11-04T12:37:04.387Z,99730.40
2022-11-04T12:40:10.792Z,99734.00
2022-11-04T12:42:51.031Z,99726.60
2022-11-04T12:45:33.882Z,99717.20
2022-11-04T12:48:09.958Z,99723.00
2022-11-04T12:51:01.762Z,99715.40
2022-11-04T12:54:10.830Z,99709.80
2022-11-04T12:56:41.587Z,99709.60
2022-11-04T12:59:40.138Z,99716.40
2022-11-04T13:02:17.291Z,99721.80
2022-11-04T13:04:53.289Z,99724.40
2022-11-04T13:07:28.453Z,99726.80
2022-11-04T13:10:00.735Z,99723.20
2022-11-04T13:12:33.506Z,99723.00
2022-11-04T13:15:08.152Z,99729.00
2022-11-04T13:17:40.884Z,99725.80
2022-11-04T13:20:22.900Z,99729.80
2022-11-04T13:22:58.982Z,99736.80
2022-11-04T13:25:36.832Z,99734.20
2022-11-04T13:28:09.010Z,99738.40
2022-11-04T13:30:41.502Z,99738.40
2022-11-04T13:33:17.145Z,99738.40
2022-11-04T13:35:52.446Z,99733.80
2022-11-04T13:38:24.517Z,99736.60
2022-11-04T13:41:10.364Z,99737.40
2022-11-04T13:43:42.442Z,99729.00
2022-11-04T13:46:29.623Z,99728.80
2022-11-04T13:49:06.194Z,99725.80
2022-11-04T13:51:42.323Z,99731.80
2022-11-04T13:54:27.991Z,99742.80
2022-11-04T13:57:12.432Z,99734.80
2022-11-04T13:59:44.122Z,99740.00
2022-11-04T14:02:47.484Z,99737.80
2022-11-04T14:06:05.593Z,99742.80
2022-11-04T14:08:35.507Z,99738.40
2022-11-04T14:11:13.435Z,99727.00
2022-11-04T14:14:04.510Z,99718.20
2022-11-04T14:16:43.207Z,99721.00
2022-11-04T14:20:00.290Z,99717.20
2022-11-04T14:22:45.663Z,99714.80
2022-11-04T14:25:29.028Z,99715.60
2022-11-04T14:28:03.825Z,99719.40
2022-11-04T14:30:46.458Z,99711.80
2022-11-04T14:33:50.527Z,99703.20
2022-11-04T14:36:34.649Z,99704.20
2022-11-04T14:39:21.477Z,99707.40
2022-11-04T14:41:59.856Z,99708.80
2022-11-04T14:44:35.901Z,99709.00
2022-11-04T14:47:17.983Z,99716.00
2022-11-04T14:49:49.481Z,99713.20
2022-11-04T14:52:25.003Z,99716.00
2022-11-04T14:54:58.358Z,99718.20
2022-11-04T14:57:36.165Z,99714.60
2022-11-04T15:00:34.761Z,99710.20
2022-11-04T15:03:52.001Z,99709.60
2022-11-04T15:06:07.793Z,99720.20
2022-11-04T15:08:43.205Z,99723.60
2022-11-04T15:11:17.728Z,99730.40
2022-11-04T15:13:49.179Z,99729.60
2022-11-04T15:16:21.144Z,99730.40
2022-11-04T15:18:51.350Z,99721.40
2022-11-04T15:21:21.420Z,99717.20
2022-11-04T15:23:53.347Z,99724.60
2022-11-04T15:26:29.831Z,99723.80
2022-11-04T15:29:02.239Z,99723.20
2022-11-04T15:31:33.014Z,99726.20
2022-11-04T15:34:06.500Z,99724.20
2022-11-04T15:36:39.808Z,99722.20
2022-11-04T15:39:14.380Z,99722.80
2022-11-04T15:42:05.210Z,99720.20
2022-11-04T15:44:36.797Z,99726.00
2022-11-04T15:47:24.564Z,99725.40
2022-11-04T15:50:02.508Z,99722.60
2022-11-04T15:52:32.585Z,99725.00
2022-11-04T15:55:03.136Z,99724.60
2022-11-04T15:57:34.940Z,99724.60
2022-11-04T16:00:08.158Z,99728.20
2022-11-04T16:02:47.632Z,99728.00
2022-11-04T16:05:27.787Z,99732.60
2022-11-04T16:08:19.069Z,99740.20
2022-11-04T16:10:49.552Z,99739.20
2022-11-04T16:13:25.899Z,99733.20
2022-11-04T16:16:14.257Z,99730.80
2022-11-04T16:18:45.618Z,99735.40
2022-11-04T16:21:26.884Z,99735.60
2022-11-04T16:24:00.802Z,99731.60
2022-11-04T16:26:34.788Z,99743.40
2022-11-04T16:29:08.704Z,99739.80
2022-11-04T16:31:39.638Z,99740.00
2022-11-04T16:34:12.168Z,99751.40
2022-11-04T16:36:41.929Z,99750.60
2022-11-04T16:39:11.935Z,99750.80
2022-11-04T16:41:42.129Z,99752.40
2022-11-04T16:44:20.275Z,99746.60
2022-11-04T16:46:50.693Z,99753.80
2022-11-04T16:49:27.948Z,99748.20
2022-11-04T16:52:02.272Z,99752.20
2022-11-04T16:54:35.396Z,99761.00
2022-11-04T16:57:11.404Z,99760.40
2022-11-04T16:59:41.830Z,99749.60
2022-11-04T17:02:27.553Z,99751.00
2022-11-04T17:04:58.519Z,99737.80
2022-11-04T17:07:47.332Z,99729.80
2022-11-04T17:10:20.444Z,99727.60
2022-11-04T17:12:50.454Z,99724.60
2022-11-04T17:15:21.089Z,99718.20
2022-11-04T17:17:51.161Z,99720.20
2022-11-04T17:20:30.844Z,99714.00
2022-11-04T17:23:06.984Z,99709.20
2022-11-04T17:25:39.682Z,99700.80
2022-11-04T17:28:09.604Z,99703.00
2022-11-04T17:30:42.325Z,99708.20
2022-11-04T17:33:14.551Z,99704.00
2022-11-04T17:35:48.072Z,99695.20
2022-11-04T17:38:18.145Z,99702.20
2022-11-04T17:41:06.256Z,99703.00
2022-11-04T17:43:54.327Z,99704.00
2022-11-04T17:46:42.500Z,99700.80
2022-11-04T17:49:17.815Z,99691.80
2022-11-04T17:51:49.818Z,99693.20
2022-11-04T17:54:19.814Z,99697.20
2022-11-04T17:56:51.938Z,99694.00
2022-11-04T17:59:22.651Z,99692.00
2022-11-04T18:01:52.910Z,99682.80
2022-11-04T18:04:23.826Z,99682.40
2022-11-04T18:06:57.129Z,99685.40
2022-11-04T18:09:30.633Z,99689.20
2022-11-04T18:12:18.655Z,99686.00
2022-11-04T18:14:48.541Z,99690.60
2022-11-04T18:17:24.215Z,99691.20
2022-11-04T18:19:57.098Z,99688.40
2022-11-04T18:22:27.070Z,99688.60
2022-11-04T18:24:58.128Z,99698.00
2022-11-04T18:27:28.521Z,99700.80
2022-11-04T18:30:02.448Z,99698.40
2022-11-04T18:32:32.984Z,99695.60
2022-11-04T18:35:03.049Z,99695.80
2022-11-04T18:37:34.039Z,99697.60
2022-11-04T18:40:04.662Z,99701.60
2022-11-04T18:42:35.918Z,99707.60
2022-11-04T18:45:08.563Z,99705.60
2022-11-04T18:47:39.034Z,99704.00
2022-11-04T18:50:11.107Z,99705.40
2022-11-04T18:52:43.453Z,99705.40
2022-11-04T18:55:13.794Z,99703.40
2022-11-04T18:57:44.815Z,99698.60
2022-11-04T19:00:17.655Z,99691.80
2022-11-04T19:02:47.705Z,99690.60
2022-11-04T19:05:18.066Z,99690.20
2022-11-04T19:07:48.162Z,99696.40
2022-11-04T19:10:18.639Z,99699.80
2022-11-04T19:13:06.815Z,99691.80
2022-11-04T19:15:37.642Z,99688.80
2022-11-04T19:18:08.532Z,99696.60
2022-11-04T19:20:38.815Z,99698.40
2022-11-04T19:23:09.247Z,99696.00
2022-11-04T19:25:42.978Z,99701.40
2022-11-04T19:31:06.541Z,99704.00
2022-11-04T19:33:38.692Z,99709.00
2022-11-04T19:36:15.909Z,99704.60
2022-11-04T19:38:50.709Z,99698.40
2022-11-04T19:41:39.857Z,99698.40
2022-11-04T19:44:12.337Z,99697.80
2022-11-04T19:46:42.726Z,99694.00
2022-11-04T19:49:14.922Z,99684.40
2022-11-04T19:51:45.655Z,99677.80
2022-11-04T19:54:19.303Z,99677.20
2022-11-04T19:56:52.699Z,99676.00
2022-11-04T19:59:23.600Z,99672.40
2022-11-04T20:01:56.041Z,99676.80
2022-11-04T20:04:28.665Z,99675.40
2022-11-04T20:07:01.333Z,99679.60
2022-11-04T20:09:32.040Z,99685.40
2022-11-04T20:12:21.383Z,99703.00
2022-11-04T20:14:53.257Z,99704.40
2022-11-04T20:17:24.936Z,99692.80
2022-11-04T20:19:58.816Z,99698.80
2022-11-04T20:22:31.401Z,99697.60
2022-11-04T20:25:02.161Z,99700.60
2022-11-04T20:27:33.031Z,99687.60
2022-11-04T20:30:06.188Z,99688.20
2022-11-04T20:32:36.459Z,99689.20
2022-11-04T20:35:10.383Z,99689.40
2022-11-04T20:37:44.308Z,99693.40
2022-11-04T20:40:15.538Z,99693.80
2022-11-04T20:42:47.967Z,99684.80
2022-11-04T20:45:21.221Z,99690.20
2022-11-04T20:47:53.393Z,99686.60
2022-11-04T20:50:24.257Z,99683.80
2022-11-04T20:52:54.511Z,99677.80
2022-11-04T20:55:27.676Z,99666.20
2022-11-04T20:57:58.433Z,99671.20
2022-11-04T21:00:29.228Z,99672.60
2022-11-04T21:03:00.764Z,99673.20
2022-11-04T21:05:32.638Z,99683.00
2022-11-04T21:08:03.571Z,99681.60
2022-11-04T21:10:36.011Z,99689.40
2022-11-04T21:13:06.903Z,99690.40
2022-11-04T21:15:44.209Z,99691.40
2022-11-04T21:18:15.275Z,99688.40
2022-11-04T21:20:46.397Z,99686.00
2022-11-04T21:23:17.646Z,99694.40
2022-11-04T21:25:49.692Z,99690.00
2022-11-04T21:28:21.053Z,99691.60
2022-11-04T21:30:53.450Z,99686.00
2022-11-04T21:33:24.012Z,99679.00
2022-11-04T21:35:55.282Z,99675.60
2022-11-04T21:38:29.312Z,99688.60
2022-11-04T21:41:07.181Z,99684.80
2022-11-04T21:43:37.848Z,99678.20
2022-11-04T21:46:09.739Z,99674.40
2022-11-04T21:48:40.187Z,99679.00
2022-11-04T21:51:12.119Z,99681.00
2022-11-04T21:53:43.458Z,99677.60
2022-11-04T21:56:15.836Z,99680.80
2022-11-04T21:58:46.109Z,99680.20
2022-11-04T22:01:22.924Z,99674.00
2022-11-04T22:03:54.869Z,99682.00
2022-11-04T22:06:30.438Z,99681.60
2022-11-04T22:09:12.470Z,99679.00
2022-11-04T22:11:43.092Z,99680.20
2022-11-04T22:14:14.425Z,99677.60
2022-11-04T22:16:45.074Z,99684.40
2022-11-04T22:19:15.719Z,99687.20
2022-11-04T22:21:47.106Z,99687.20
2022-11-04T22:24:18.982Z,99685.60
2022-11-04T22:26:50.461Z,99694.00
2022-11-04T22:29:22.091Z,99682.80
2022-11-04T22:31:52.398Z,99678.60
2022-11-04T22:34:24.788Z,99670.80
2022-11-04T22:36:55.812Z,99672.20
2022-11-04T22:39:26.370Z,99676.60
2022-11-04T22:41:57.257Z,99676.20
2022-11-04T22:44:28.320Z,99671.00
2022-11-04T22:46:58.495Z,99672.60
2022-11-04T22:49:28.892Z,99668.60
2022-11-04T22:51:59.585Z,99675.80
2022-11-04T22:54:30.250Z,99681.40
2022-11-04T22:57:00.863Z,99683.60
2022-11-04T22:59:31.588Z,99682.20
2022-11-04T23:02:02.940Z,99678.00
2022-11-04T23:04:33.772Z,99677.20
2022-11-04T23:07:05.012Z,99688.80
2022-11-04T23:09:55.073Z,99695.60
2022-11-04T23:12:43.532Z,99689.60
2022-11-04T23:15:31.907Z,99684.20
2022-11-04T23:18:23.401Z,99687.80
2022-11-04T23:21:14.389Z,99695.60
2022-11-04T23:24:03.133Z,99691.00
2022-11-04T23:26:35.142Z,99689.20
2022-11-04T23:29:24.182Z,99689.20
2022-11-04T23:31:54.420Z,99688.60
2022-11-04T23:34:42.975Z,99687.80
2022-11-04T23:37:13.309Z,99695.60
2022-11-04T23:39:47.469Z,99699.60
2022-11-04T23:42:20.569Z,99687.20
2022-11-04T23:45:10.524Z,99692.60
2022-11-04T23:48:00.707Z,99699.00
2022-11-04T23:50:51.753Z,99704.80
2022-11-04T23:53:40.819Z,99707.40
2022-11-04T23:56:30.445Z,99706.00
2022-11-04T23:59:18.261Z,99711.60
